Time;durP1;ratioP1;P1;durP2;ratioP2;P2;SDS_P1;SDS_P2;PMS_P1;PMS_P2;Temp;Humidity;BMP_temperature;BMP_pressure;BME280_temperature;BME280_humidity;BME280_pressure;Samples;Min_cycle;Max_cycle;Signal;HPM_P1;HPM_P2
2024/04/18 00:01:29;;;;;;;3.58;3.28;;;5.30;1.00;;;;;;5332437;26;20273;-73
2024/04/18 00:03:55;;;;;;;5.63;3.63;;;5.20;1.00;;;;;;5345170;26;20288;-80
2024/04/18 00:06:24;;;;;;;9.20;3.57;;;5.20;1.00;;;;;;5341512;26;20296;-72
2024/04/18 00:08:50;;;;;;;3.10;2.63;;;5.10;1.00;;;;;;5326760;26;21061;-72
2024/04/18 00:11:18;;;;;;;5.37;3.27;;;5.10;1.00;;;;;;5323641;26;20390;-71
2024/04/18 00:13:44;;;;;;;3.38;2.65;;;5.00;1.00;;;;;;5330335;26;21059;-73
2024/04/18 00:16:15;;;;;;;5.23;3.20;;;5.00;1.00;;;;;;5311490;26;20316;-72
2024/04/18 00:18:41;;;;;;;3.30;3.00;;;5.00;1.00;;;;;;5308150;26;20492;-75
2024/04/18 00:21:10;;;;;;;2.87;2.67;;;5.00;1.00;;;;;;5341822;26;20261;-73
2024/04/18 00:23:36;;;;;;;2.20;2.00;;;4.90;1.00;;;;;;5322160;26;20926;-73
2024/04/18 00:26:04;;;;;;;3.50;2.67;;;4.90;1.00;;;;;;5308116;26;20258;-72
2024/04/18 00:28:30;;;;;;;2.67;2.40;;;4.90;1.00;;;;;;5306352;26;21411;-73
2024/04/18 00:30:59;;;;;;;5.10;2.63;;;4.80;1.00;;;;;;5302735;26;20273;-72
2024/04/18 00:33:27;;;;;;;2.40;2.20;;;4.80;1.00;;;;;;5314109;26;20557;-72
2024/04/18 00:35:56;;;;;;;3.25;2.70;;;4.80;1.00;;;;;;5342482;26;20279;-72
2024/04/18 00:38:22;;;;;;;3.53;2.40;;;4.80;1.00;;;;;;5338483;26;20260;-72
2024/04/18 00:40:51;;;;;;;2.63;2.40;;;4.80;1.00;;;;;;5328922;26;20268;-71
2024/04/18 00:43:18;;;;;;;3.65;2.60;;;4.70;1.00;;;;;;5343100;26;20791;-72
2024/04/18 00:45:46;;;;;;;2.40;2.20;;;4.70;1.00;;;;;;5341168;26;20289;-72
2024/04/18 00:48:12;;;;;;;3.03;2.30;;;4.70;1.00;;;;;;5341172;25;20280;-72
2024/04/18 00:50:44;;;;;;;2.53;2.10;;;4.70;1.00;;;;;;5337588;26;20284;-71
2024/04/18 00:53:10;;;;;;;2.40;2.20;;;4.70;1.00;;;;;;5339960;26;20483;-73
2024/04/18 00:55:42;;;;;;;3.67;2.50;;;4.70;1.00;;;;;;5346030;26;20632;-72
2024/04/18 00:58:09;;;;;;;2.97;2.67;;;4.60;1.00;;;;;;5341864;26;20487;-74
2024/04/18 01:00:38;;;;;;;2.97;2.40;;;4.60;1.00;;;;;;5335192;26;20284;-71
2024/04/18 01:03:04;;;;;;;2.40;2.13;;;4.60;1.00;;;;;;5342507;26;21042;-77
2024/04/18 01:05:34;;;;;;;2.55;2.35;;;4.50;1.00;;;;;;5309409;26;20355;-72
2024/04/18 01:08:03;;;;;;;4.35;2.25;;;4.50;1.00;;;;;;5314640;26;20362;-72
2024/04/18 01:10:32;;;;;;;3.17;2.25;;;4.50;1.00;;;;;;5311473;26;20269;-72
2024/04/18 01:12:59;;;;;;;2.72;2.35;;;4.50;1.00;;;;;;5303309;26;20265;-71
2024/04/18 01:15:28;;;;;;;2.33;2.13;;;4.50;1.00;;;;;;5310305;26;20370;-72
2024/04/18 01:17:55;;;;;;;3.38;2.60;;;4.50;1.00;;;;;;5313308;26;20292;-72
2024/04/18 01:20:25;;;;;;;4.25;2.42;;;4.50;1.00;;;;;;5305583;26;20278;-71
2024/04/18 01:22:51;;;;;;;4.22;2.75;;;4.50;1.00;;;;;;5308709;26;20991;-72
2024/04/18 01:25:22;;;;;;;5.23;3.07;;;4.50;1.00;;;;;;5338306;26;20256;-73
2024/04/18 01:27:51;;;;;;;3.10;2.80;;;4.40;1.00;;;;;;5341656;26;20487;-71
2024/04/18 01:30:20;;;;;;;3.25;2.63;;;4.40;1.00;;;;;;5340025;26;20366;-74
2024/04/18 01:32:46;;;;;;;2.92;2.63;;;4.50;1.00;;;;;;5334769;26;20300;-70
2024/04/18 01:35:14;;;;;;;2.70;2.50;;;4.50;1.00;;;;;;5340356;26;20631;-74
2024/04/18 01:37:40;;;;;;;4.05;2.35;;;4.40;1.00;;;;;;5338859;26;20571;-72
2024/04/18 01:40:10;;;;;;;2.60;2.40;;;4.50;1.00;;;;;;5342194;26;20272;-71
2024/04/18 01:42:36;;;;;;;3.40;2.60;;;4.40;1.00;;;;;;5340893;26;20491;-72
2024/04/18 01:45:08;;;;;;;2.20;2.07;;;4.40;1.00;;;;;;5338813;26;20273;-71
2024/04/18 01:47:34;;;;;;;2.70;2.50;;;4.30;1.00;;;;;;5344907;26;20566;-73
2024/04/18 01:50:02;;;;;;;3.63;2.70;;;4.30;1.00;;;;;;5343072;26;20754;-72
2024/04/18 01:52:28;;;;;;;3.28;2.80;;;4.30;1.00;;;;;;5343084;26;20487;-71
2024/04/18 01:54:59;;;;;;;4.70;3.10;;;4.20;1.00;;;;;;5339492;26;20264;-72
2024/04/18 01:57:25;;;;;;;4.80;3.30;;;4.10;1.00;;;;;;5344006;26;20547;-77
2024/04/18 01:59:53;;;;;;;3.20;2.90;;;4.10;1.00;;;;;;5340797;26;20377;-72
2024/04/18 02:02:23;;;;;;;5.47;3.20;;;4.00;1.00;;;;;;5343568;26;21075;-73
2024/04/18 02:04:51;;;;;;;4.05;3.25;;;4.00;1.00;;;;;;5339252;26;20264;-72
2024/04/18 02:07:17;;;;;;;4.45;4.05;;;4.00;1.00;;;;;;5340170;26;20403;-73
2024/04/18 02:09:46;;;;;;;4.28;3.88;;;4.00;1.00;;;;;;5346227;26;20268;-76
2024/04/18 02:12:12;;;;;;;4.30;3.50;;;4.00;1.00;;;;;;5335704;26;20261;-80
2024/04/18 02:14:40;;;;;;;4.47;3.60;;;3.90;1.00;;;;;;5343081;26;20294;-74
2024/04/18 02:17:06;;;;;;;3.45;3.15;;;3.90;1.00;;;;;;5342798;26;20534;-74
2024/04/18 02:19:35;;;;;;;4.60;3.07;;;3.90;1.00;;;;;;5334144;26;20611;-74
2024/04/18 02:22:03;;;;;;;5.10;3.78;;;3.90;1.00;;;;;;5344202;26;20572;-75
2024/04/18 02:24:32;;;;;;;4.55;3.80;;;3.90;1.00;;;;;;5343149;26;20267;-75
2024/04/18 02:27:01;;;;;;;7.70;4.95;;;3.80;1.00;;;;;;5342525;26;20380;-74
2024/04/18 02:29:26;;;;;;;4.10;3.70;;;3.80;1.00;;;;;;5340343;25;20287;-75
2024/04/18 02:31:55;;;;;;;7.57;4.40;;;3.80;1.00;;;;;;5340852;26;20294;-75
2024/04/18 02:34:21;;;;;;;4.00;3.60;;;3.80;1.00;;;;;;5336301;26;20475;-74
2024/04/18 02:36:52;;;;;;;6.37;4.40;;;3.80;1.00;;;;;;5345075;26;20768;-74
2024/04/18 02:39:18;;;;;;;4.15;3.40;;;3.70;1.00;;;;;;5338537;25;20486;-74
2024/04/18 02:41:46;;;;;;;7.07;4.20;;;3.70;1.00;;;;;;5342273;26;20260;-74
2024/04/18 02:44:12;;;;;;;5.35;4.28;;;3.70;1.00;;;;;;5339987;26;21075;-74
2024/04/18 02:46:41;;;;;;;5.27;4.03;;;3.70;1.00;;;;;;5333555;26;20291;-74
2024/04/18 02:49:07;;;;;;;5.70;4.25;;;3.70;1.00;;;;;;5339212;26;20498;-74
2024/04/18 02:51:35;;;;;;;3.70;3.40;;;3.60;1.00;;;;;;5335988;26;20672;-75
2024/04/18 02:54:04;;;;;;;3.95;3.35;;;3.60;1.00;;;;;;5335424;25;20794;-74
2024/04/18 02:56:32;;;;;;;5.20;4.00;;;3.70;1.00;;;;;;5339371;25;20267;-73
2024/04/18 02:58:58;;;;;;;4.63;3.58;;;3.60;1.00;;;;;;5338785;26;21032;-74
2024/04/18 03:01:27;;;;;;;4.00;3.70;;;3.60;1.00;;;;;;5341497;26;20291;-75
2024/04/18 03:03:53;;;;;;;8.55;3.88;;;3.60;1.00;;;;;;5341526;26;20482;-73
2024/04/18 03:06:21;;;;;;;4.60;3.90;;;3.60;1.00;;;;;;5337556;26;20302;-74
2024/04/18 03:08:47;;;;;;;5.30;4.80;;;3.60;1.00;;;;;;5342210;26;20467;-74
2024/04/18 03:11:18;;;;;;;6.40;4.00;;;3.60;1.00;;;;;;5335406;25;20826;-81
2024/04/18 03:13:44;;;;;;;5.70;4.47;;;3.50;1.00;;;;;;5337806;25;20549;-79
2024/04/18 03:16:13;;;;;;;3.90;3.60;;;3.60;1.00;;;;;;5345243;26;20436;-74
2024/04/18 03:18:39;;;;;;;8.82;3.92;;;3.60;1.00;;;;;;5333852;26;20491;-79
2024/04/18 03:21:08;;;;;;;5.33;3.90;;;3.50;1.00;;;;;;5345071;26;20725;-72
2024/04/18 03:23:34;;;;;;;7.47;4.57;;;3.50;1.00;;;;;;5320221;26;20498;-71
2024/04/18 03:26:02;;;;;;;5.30;3.83;;;3.50;1.00;;;;;;5306061;26;20265;-72
2024/04/18 03:28:32;;;;;;;7.63;4.63;;;3.50;1.00;;;;;;5307605;26;20536;-71
2024/04/18 03:31:00;;;;;;;4.82;4.30;;;3.50;1.00;;;;;;5333942;26;20276;-71
2024/04/18 03:33:26;;;;;;;4.03;3.50;;;3.40;1.00;;;;;;5341546;26;20276;-71
2024/04/18 03:35:55;;;;;;;5.93;5.10;;;3.40;1.00;;;;;;5341740;26;20320;-71
2024/04/18 03:38:23;;;;;;;6.95;4.20;;;3.40;1.00;;;;;;5344046;26;20471;-73
2024/04/18 03:41:00;;;;;;;6.78;4.68;;;3.50;1.00;;;;;;5341866;26;20295;-70
2024/04/18 03:43:31;;;;;;;4.63;4.22;;;3.40;1.00;;;;;;5345083;26;20266;-72
2024/04/18 03:46:03;;;;;;;8.38;5.50;;;3.40;1.00;;;;;;5328855;26;20323;-71
2024/04/18 03:48:32;;;;;;;8.63;4.32;;;3.40;1.00;;;;;;5344376;26;20821;-72
2024/04/18 03:50:58;;;;;;;8.52;4.50;;;3.40;1.00;;;;;;5341712;26;20288;-75
2024/04/18 03:53:26;;;;;;;5.60;4.47;;;3.40;1.00;;;;;;5330850;26;20307;-73
2024/04/18 03:55:52;;;;;;;5.55;4.53;;;3.30;1.00;;;;;;5328923;26;21020;-72
2024/04/18 03:58:21;;;;;;;6.33;5.30;;;3.30;1.00;;;;;;5327363;26;20265;-71
2024/04/18 04:00:47;;;;;;;5.05;4.55;;;3.30;1.00;;;;;;5344382;26;20535;-71
2024/04/18 04:03:19;;;;;;;7.85;4.55;;;3.30;1.00;;;;;;5300299;26;20292;-71
2024/04/18 04:05:44;;;;;;;6.80;5.30;;;3.30;1.00;;;;;;5312497;26;20264;-72
2024/04/18 04:08:13;;;;;;;7.60;5.83;;;3.30;1.00;;;;;;5341081;26;20272;-71
2024/04/18 04:10:39;;;;;;;8.65;7.13;;;3.30;1.00;;;;;;5337927;26;20602;-74
2024/04/18 04:13:07;;;;;;;6.87;4.37;;;3.30;1.00;;;;;;5345498;26;20272;-71
2024/04/18 04:15:35;;;;;;;6.60;5.15;;;3.30;1.00;;;;;;5335045;26;20490;-72
2024/04/18 04:18:03;;;;;;;8.52;5.30;;;3.30;1.00;;;;;;5338211;26;20294;-73
2024/04/18 04:20:32;;;;;;;11.00;5.25;;;3.30;1.00;;;;;;5343003;26;20260;-71
2024/04/18 04:23:00;;;;;;;10.93;4.80;;;3.30;1.00;;;;;;5345569;26;20263;-72
2024/04/18 04:25:26;;;;;;;7.90;5.30;;;3.40;1.00;;;;;;5339370;26;20283;-77
2024/04/18 04:27:55;;;;;;;9.40;5.93;;;3.30;1.00;;;;;;5340858;26;20763;-75
2024/04/18 04:30:23;;;;;;;8.07;4.55;;;3.40;1.00;;;;;;5337927;26;20523;-73
2024/04/18 04:32:49;;;;;;;8.05;5.43;;;3.40;1.00;;;;;;5341674;26;21301;-73
2024/04/18 04:35:18;;;;;;;7.15;5.47;;;3.40;1.00;;;;;;5339005;26;20300;-72
2024/04/18 04:37:49;;;;;;;11.02;6.50;;;3.40;1.00;;;;;;5342917;26;20264;-73
2024/04/18 04:40:18;;;;;;;6.55;5.00;;;3.50;1.00;;;;;;5337296;26;20267;-73
2024/04/18 04:42:45;;;;;;;10.63;6.07;;;3.50;1.00;;;;;;5317122;26;20272;-71
2024/04/18 04:45:14;;;;;;;6.10;5.20;;;3.50;1.00;;;;;;5340423;26;20260;-75
2024/04/18 04:47:40;;;;;;;9.70;6.00;;;3.50;1.00;;;;;;5335188;26;20294;-73
2024/04/18 04:50:09;;;;;;;5.95;4.90;;;3.50;1.00;;;;;;5310010;26;20273;-73
2024/04/18 04:52:35;;;;;;;7.03;5.85;;;3.60;1.00;;;;;;5305291;26;20257;-72
2024/04/18 04:55:07;;;;;;;9.20;5.90;;;3.60;1.00;;;;;;5333613;26;20269;-72
2024/04/18 04:57:33;;;;;;;6.82;5.07;;;3.60;1.00;;;;;;5339707;26;20503;-73
2024/04/18 05:00:01;;;;;;;6.50;5.40;;;3.70;1.00;;;;;;5340017;26;20578;-70
2024/04/18 05:02:27;;;;;;;8.98;6.60;;;3.70;1.00;;;;;;5339597;26;20487;-69
2024/04/18 05:04:56;;;;;;;7.33;5.83;;;3.80;1.00;;;;;;5342767;26;20269;-71
2024/04/18 05:07:22;;;;;;;8.35;5.40;;;3.80;1.00;;;;;;5346784;26;20496;-72
2024/04/18 05:09:52;;;;;;;8.10;5.30;;;3.80;1.00;;;;;;5341909;26;20256;-69
2024/04/18 05:12:23;;;;;;;5.80;5.20;;;3.90;1.00;;;;;;5335142;26;21097;-71
2024/04/18 05:14:49;;;;;;;13.85;12.45;;;3.90;1.00;;;;;;5337108;26;20795;-72
2024/04/18 05:17:18;;;;;;;6.30;5.57;;;4.00;1.00;;;;;;5317432;26;20324;-72
2024/04/18 05:19:44;;;;;;;7.43;6.20;;;4.10;1.00;;;;;;5304471;26;20489;-70
2024/04/18 05:22:13;;;;;;;7.83;6.83;;;4.20;1.00;;;;;;5317703;26;20256;-70
2024/04/18 05:24:39;;;;;;;9.05;7.13;;;4.30;1.00;;;;;;5336547;26;20499;-72
2024/04/18 05:27:08;;;;;;;8.25;6.78;;;4.40;1.00;;;;;;5339477;26;20765;-71
2024/04/18 05:32:25;;;;;;;7.70;6.95;;;4.60;1.00;;;;;;5330367;26;20265;-72
2024/04/18 05:34:54;;;;;;;12.77;7.38;;;4.80;1.00;;;;;;5312156;26;20300;-72
2024/04/18 05:37:23;;;;;;;10.88;6.97;;;4.80;1.00;;;;;;5322956;26;20265;-72
2024/04/18 05:39:51;;;;;;;14.75;8.32;;;4.90;1.00;;;;;;5339701;26;20284;-74
2024/04/18 05:42:20;;;;;;;15.00;7.40;;;5.00;1.00;;;;;;5348521;26;20287;-75
2024/04/18 05:44:51;;;;;;;16.25;8.25;;;5.10;1.00;;;;;;5329896;26;20273;-74
2024/04/18 05:47:20;;;;;;;12.90;7.40;;;5.20;1.00;;;;;;5343063;26;20403;-77
2024/04/18 05:49:50;;;;;;;11.90;7.65;;;5.30;1.00;;;;;;5347085;26;20324;-77
2024/04/18 05:52:19;;;;;;;18.13;8.20;;;5.40;1.00;;;;;;5341525;26;20369;-74
2024/04/18 05:54:47;;;;;;;12.93;7.95;;;5.50;1.00;;;;;;5344268;26;20272;-74
2024/04/18 05:57:16;;;;;;;15.15;8.38;;;5.60;1.00;;;;;;5346375;26;20273;-75
2024/04/18 05:59:44;;;;;;;12.15;7.55;;;5.80;1.00;;;;;;5326798;26;20300;-74
2024/04/18 06:02:15;;;;;;;12.02;7.97;;;5.90;1.00;;;;;;5347367;26;20289;-74
2024/04/18 06:04:44;;;;;;;12.55;7.85;;;6.10;1.00;;;;;;5347500;26;20271;-76
2024/04/18 06:07:12;;;;;;;12.35;9.50;;;6.20;1.00;;;;;;5329931;26;20289;-74
2024/04/18 06:09:41;;;;;;;20.00;10.07;;;6.30;1.00;;;;;;5344395;26;21211;-73
2024/04/18 06:12:10;;;;;;;11.80;8.20;;;6.40;1.00;;;;;;5341899;26;21536;-73
2024/04/18 06:14:40;;;;;;;14.63;10.52;;;6.50;1.00;;;;;;5345613;26;20297;-74
2024/04/18 06:17:08;;;;;;;23.40;18.48;;;6.60;1.00;;;;;;5342794;26;20810;-72
2024/04/18 06:19:40;;;;;;;16.65;11.10;;;6.70;1.00;;;;;;5340115;26;20266;-73
2024/04/18 06:22:08;;;;;;;14.63;10.63;;;6.80;1.00;;;;;;5343701;26;20257;-73
2024/04/18 06:24:37;;;;;;;9.10;7.17;;;6.80;1.00;;;;;;5345959;26;21426;-72
2024/04/18 06:27:05;;;;;;;11.03;6.60;;;6.90;1.00;;;;;;5348912;26;20539;-74
2024/04/18 06:29:34;;;;;;;11.63;6.90;;;7.00;1.00;;;;;;5347760;26;20495;-74
2024/04/18 06:32:03;;;;;;;16.93;8.20;;;7.10;1.00;;;;;;5343247;26;21472;-74
2024/04/18 06:34:32;;;;;;;9.25;6.13;;;7.20;1.00;;;;;;5348603;26;21130;-72
2024/04/18 06:37:06;;;;;;;5.93;4.97;;;7.20;1.00;;;;;;5339433;26;21351;-73
2024/04/18 06:39:34;;;;;;;6.30;4.80;;;7.20;1.00;;;;;;5344959;26;20543;-73
2024/04/18 06:42:03;;;;;;;6.33;3.83;;;7.30;1.00;;;;;;5344666;26;20612;-72
2024/04/18 06:44:32;;;;;;;8.17;4.17;;;7.40;1.00;;;;;;5339441;26;20513;-73
2024/04/18 06:47:00;;;;;;;5.70;4.97;;;7.50;1.00;;;;;;5343956;26;20582;-74
2024/04/18 06:49:29;;;;;;;13.40;9.03;;;7.50;1.00;;;;;;5343463;26;21082;-74
2024/04/18 06:51:57;;;;;;;7.57;5.20;;;7.60;1.00;;;;;;5346954;26;20938;-70
2024/04/18 06:54:28;;;;;;;7.47;3.53;;;7.70;1.00;;;;;;5327576;26;20509;-70
2024/04/18 06:56:57;;;;;;;11.33;4.07;;;7.80;1.00;;;;;;5340897;26;20491;-69
2024/04/18 06:59:26;;;;;;;9.60;4.67;;;7.90;1.00;;;;;;5344089;26;20510;-70
2024/04/18 07:01:54;;;;;;;16.47;13.13;;;8.10;1.00;;;;;;5341521;26;20621;-70
2024/04/18 07:04:23;;;;;;;7.03;3.97;;;8.20;1.00;;;;;;5348889;26;20501;-69
2024/04/18 07:06:51;;;;;;;6.70;4.53;;;8.40;1.00;;;;;;5333055;26;20480;-69
2024/04/18 07:09:20;;;;;;;7.10;3.63;;;8.50;1.00;;;;;;5338088;26;21007;-69
2024/04/18 07:11:51;;;;;;;6.73;3.80;;;8.60;1.00;;;;;;5342169;26;20671;-75
2024/04/18 07:14:20;;;;;;;3.33;2.70;;;8.70;1.00;;;;;;5352960;26;21419;-71
2024/04/18 07:16:48;;;;;;;4.57;3.20;;;8.70;1.00;;;;;;5322937;26;21500;-73
2024/04/18 07:19:17;;;;;;;7.37;3.30;;;8.70;1.00;;;;;;5310082;26;20477;-69
2024/04/18 07:21:46;;;;;;;4.40;2.77;;;8.90;1.00;;;;;;5322951;26;20547;-69
2024/04/18 07:24:14;;;;;;;10.60;4.90;;;9.00;1.00;;;;;;5312301;26;20549;-70
2024/04/18 07:26:46;;;;;;;9.50;3.40;;;9.20;1.00;;;;;;5310818;26;20497;-70
2024/04/18 07:29:17;;;;;;;5.63;2.50;;;9.20;1.00;;;;;;5313146;26;20531;-71
2024/04/18 07:31:45;;;;;;;5.67;3.70;;;9.30;1.00;;;;;;5311614;26;20585;-71
2024/04/18 07:34:14;;;;;;;24.57;5.87;;;9.40;1.00;;;;;;5341245;26;20537;-70
2024/04/18 07:36:43;;;;;;;3.70;2.57;;;9.50;1.00;;;;;;5341751;26;20495;-72
2024/04/18 07:39:11;;;;;;;3.10;2.40;;;9.60;1.00;;;;;;5348192;26;20491;-70
2024/04/18 07:41:42;;;;;;;4.83;2.63;;;9.70;1.00;;;;;;5314188;26;20496;-69
2024/04/18 07:44:11;;;;;;;14.53;4.77;;;9.80;1.00;;;;;;5309230;26;20549;-71
2024/04/18 07:46:47;;;;;;;9.30;4.63;;;10.00;1.00;;;;;;5328689;26;20525;-69
2024/04/18 07:49:16;;;;;;;4.30;3.90;;;10.10;1.00;;;;;;5329694;26;20536;-70
2024/04/18 07:51:44;;;;;;;9.73;4.53;;;10.30;1.00;;;;;;5336228;26;20496;-71
2024/04/18 07:54:13;;;;;;;28.63;20.47;;;10.50;1.00;;;;;;5341696;26;20995;-69
2024/04/18 07:56:41;;;;;;;3.47;2.43;;;10.70;1.00;;;;;;5350443;26;21036;-70
2024/04/18 07:59:10;;;;;;;3.17;2.17;;;10.70;1.00;;;;;;5336927;26;20587;-71
2024/04/18 08:01:42;;;;;;;9.07;2.90;;;10.70;1.00;;;;;;5322936;26;20484;-70
2024/04/18 08:04:11;;;;;;;5.30;2.57;;;10.60;1.00;;;;;;5341489;26;20644;-71
2024/04/18 08:06:37;;;;;;;3.60;2.40;;;10.70;1.00;;;;;;5348648;26;20522;-70
2024/04/18 08:09:05;;;;;;;1.67;1.57;;;10.80;1.00;;;;;;5318114;26;20488;-71
2024/04/18 08:11:34;;;;;;;3.03;1.67;;;10.90;1.00;;;;;;5313352;26;21020;-71
2024/04/18 08:14:03;;;;;;;8.30;2.70;;;11.00;1.00;;;;;;5349832;26;20498;-71
2024/04/18 08:16:31;;;;;;;9.03;2.80;;;11.10;1.00;;;;;;5343859;26;20649;-70
2024/04/18 08:19:02;;;;;;;6.55;1.90;;;11.20;1.00;;;;;;5340596;26;20359;-72
2024/04/18 08:21:31;;;;;;;4.30;1.97;;;11.20;1.00;;;;;;5336123;26;20838;-71
2024/04/18 08:24:01;;;;;;;37.23;26.03;;;11.30;1.00;;;;;;5348760;26;20492;-72
2024/04/18 08:26:30;;;;;;;12.17;2.30;;;11.40;1.00;;;;;;5339001;26;21565;-70
2024/04/18 08:28:58;;;;;;;4.33;1.33;;;11.40;1.00;;;;;;5346194;26;20543;-70
2024/04/18 08:31:27;;;;;;;1.53;1.43;;;11.50;1.00;;;;;;5330084;26;20488;-72
2024/04/18 08:33:56;;;;;;;3.23;1.60;;;11.50;1.00;;;;;;5336066;26;20475;-71
2024/04/18 08:36:27;;;;;;;1.63;1.20;;;11.40;1.00;;;;;;5311380;26;20601;-71
2024/04/18 08:38:56;;;;;;;2.23;1.63;;;11.40;1.00;;;;;;5313957;26;20996;-71
2024/04/18 08:41:24;;;;;;;2.53;1.77;;;11.30;1.00;;;;;;5316644;26;20488;-71
2024/04/18 08:43:54;;;;;;;4.23;1.80;;;11.60;1.00;;;;;;5341821;26;20488;-73
2024/04/18 08:46:23;;;;;;;1.93;1.37;;;12.00;1.00;;;;;;5344434;26;20593;-72
2024/04/18 08:48:53;;;;;;;2.17;1.10;;;12.30;1.00;;;;;;5344766;26;20487;-71
2024/04/18 08:51:22;;;;;;;7.60;2.23;;;12.40;1.00;;;;;;5331051;26;20487;-71
2024/04/18 08:53:53;;;;;;;10.17;2.30;;;12.60;1.00;;;;;;5343274;26;21371;-70
2024/04/18 08:56:24;;;;;;;1.73;1.60;;;12.90;1.00;;;;;;5346210;26;20532;-71
2024/04/18 08:58:53;;;;;;;7.67;2.60;;;12.90;1.00;;;;;;5348614;26;20485;-71
2024/04/18 09:01:22;;;;;;;4.23;1.60;;;12.90;1.00;;;;;;5342301;26;21027;-71
2024/04/18 09:03:52;;;;;;;5.47;2.53;;;12.70;1.00;;;;;;5334656;26;20496;-71
2024/04/18 09:06:21;;;;;;;1.50;1.40;;;12.60;1.00;;;;;;5344593;26;21034;-71
2024/04/18 09:08:54;;;;;;;2.17;1.00;;;12.60;1.00;;;;;;5341606;26;20483;-71
2024/04/18 09:11:23;;;;;;;3.40;1.80;;;12.70;1.00;;;;;;5314934;26;20497;-72
2024/04/18 09:13:52;;;;;;;1.97;1.40;;;12.90;1.00;;;;;;5319951;26;20496;-72
2024/04/18 09:16:21;;;;;;;3.80;1.10;;;13.20;1.00;;;;;;5342849;26;20489;-72
2024/04/18 09:18:50;;;;;;;4.63;2.20;;;13.30;1.00;;;;;;5342937;26;20567;-73
2024/04/18 09:21:20;;;;;;;2.53;1.90;;;13.30;1.00;;;;;;5339565;26;20500;-73
2024/04/18 09:23:49;;;;;;;3.07;2.00;;;13.40;1.00;;;;;;5344666;26;20917;-72
2024/04/18 09:26:21;;;;;;;3.73;2.40;;;13.40;1.00;;;;;;5340535;26;20501;-72
2024/04/18 09:28:49;;;;;;;2.00;1.80;;;13.40;1.00;;;;;;5336601;26;20505;-73
2024/04/18 09:31:19;;;;;;;3.60;2.60;;;13.30;1.00;;;;;;5337945;26;20489;-75
2024/04/18 09:33:48;;;;;;;4.77;2.40;;;13.30;1.00;;;;;;5338910;26;20484;-72
2024/04/18 09:36:18;;;;;;;7.30;3.50;;;13.30;1.00;;;;;;5343808;26;21056;-72
2024/04/18 09:38:48;;;;;;;3.00;1.30;;;13.30;1.00;;;;;;5347112;26;20480;-73
2024/04/18 09:41:25;;;;;;;7.77;2.67;;;13.20;1.00;;;;;;5333589;26;20553;-73
2024/04/18 09:44:01;;;;;;;10.40;5.30;;;13.20;1.00;;;;;;5335555;26;20544;-71
2024/04/18 09:46:31;;;;;;;1.73;1.40;;;13.40;1.00;;;;;;5340163;26;21948;-72
2024/04/18 09:49:01;;;;;;;1.63;1.10;;;13.50;1.00;;;;;;5323195;26;20486;-71
2024/04/18 09:51:30;;;;;;;4.07;1.27;;;13.60;1.00;;;;;;5325298;26;20670;-71
2024/04/18 09:53:59;;;;;;;3.97;1.90;;;13.50;1.00;;;;;;5316127;26;20511;-71
2024/04/18 09:56:33;;;;;;;12.63;2.90;;;13.40;1.00;;;;;;5306590;26;20486;-73
2024/04/18 09:59:02;;;;;;;2.13;1.30;;;13.30;1.00;;;;;;5325705;26;20538;-72
2024/04/18 10:01:32;;;;;;;4.70;1.40;;;13.30;1.00;;;;;;5344911;26;20498;-73
2024/04/18 10:04:00;;;;;;;2.53;1.40;;;13.50;1.00;;;;;;5330201;26;20917;-78
2024/04/18 10:06:36;;;;;;;3.40;2.00;;;13.80;1.00;;;;;;5344403;26;21191;-79
2024/04/18 10:09:05;;;;;;;7.10;2.50;;;14.00;1.00;;;;;;5333076;26;21393;-74
2024/04/18 10:11:37;;;;;;;3.17;1.93;;;14.20;1.00;;;;;;5329514;26;21010;-73
2024/04/18 10:14:08;;;;;;;3.50;2.10;;;14.30;1.00;;;;;;5342690;26;20997;-73
2024/04/18 10:16:48;;;;;;;3.57;1.80;;;14.30;1.00;;;;;;5348565;26;20497;-71
2024/04/18 10:19:21;;;;;;;3.57;2.23;;;14.30;1.00;;;;;;5344162;26;20629;-72
2024/04/18 10:21:55;;;;;;;17.97;4.63;;;14.40;1.00;;;;;;5333565;26;20552;-73
2024/04/18 10:24:24;;;;;;;9.33;1.93;;;14.70;1.00;;;;;;5341238;26;22426;-73
2024/04/18 10:27:03;;;;;;;6.43;1.27;;;15.20;1.00;;;;;;5343171;26;20499;-75
2024/04/18 10:29:33;;;;;;;2.10;1.07;;;15.40;1.00;;;;;;5312532;26;20503;-74
2024/04/18 10:32:02;;;;;;;40.33;6.40;;;15.30;1.00;;;;;;5337145;26;21060;-73
2024/04/18 10:34:32;;;;;;;55.80;9.93;;;15.20;1.00;;;;;;5342076;26;20584;-73
2024/04/18 10:37:07;;;;;;;4.23;1.80;;;15.20;1.00;;;;;;5344849;26;20522;-73
2024/04/18 10:39:38;;;;;;;3.33;1.20;;;14.70;1.00;;;;;;5341248;26;20487;-73
2024/04/18 10:42:10;;;;;;;7.93;2.77;;;14.60;1.00;;;;;;5346807;26;20491;-71
2024/04/18 10:44:39;;;;;;;1.60;1.20;;;14.60;1.00;;;;;;5334133;26;20550;-73
2024/04/18 10:47:10;;;;;;;2.27;1.37;;;14.80;1.00;;;;;;5325383;26;20539;-74
2024/04/18 10:49:40;;;;;;;6.80;1.90;;;15.00;1.00;;;;;;5330140;26;20491;-74
2024/04/18 10:52:10;;;;;;;6.70;2.73;;;15.00;1.00;;;;;;5323620;26;20487;-77
2024/04/18 10:54:39;;;;;;;6.63;1.27;;;15.10;1.00;;;;;;5347337;26;21315;-72
2024/04/18 10:57:11;;;;;;;4.47;1.80;;;15.30;1.00;;;;;;5345888;26;20546;-72
2024/04/18 10:59:43;;;;;;;2.80;1.40;;;15.40;1.00;;;;;;5338631;26;20495;-73
2024/04/18 11:02:13;;;;;;;10.13;2.47;;;15.50;1.00;;;;;;5345940;26;20479;-73
2024/04/18 11:04:41;;;;;;;4.13;2.13;;;15.40;1.00;;;;;;5326721;26;20501;-73
2024/04/18 11:07:10;;;;;;;3.43;1.83;;;15.50;1.00;;;;;;5342602;26;20494;-73
2024/04/18 11:09:40;;;;;;;1.50;1.30;;;15.70;1.00;;;;;;5339303;26;20539;-74
2024/04/18 11:12:13;;;;;;;8.37;2.40;;;15.80;1.00;;;;;;5345032;26;20529;-73
2024/04/18 11:14:44;;;;;;;5.00;1.37;;;15.80;1.00;;;;;;5333816;26;20569;-73
2024/04/18 11:17:13;;;;;;;6.77;2.37;;;15.40;1.00;;;;;;5306940;26;20503;-74
2024/04/18 11:19:42;;;;;;;7.70;2.30;;;15.50;1.00;;;;;;5311329;26;20684;-73
2024/04/18 11:22:10;;;;;;;12.93;3.70;;;15.50;1.00;;;;;;5303067;26;20705;-73
2024/04/18 11:24:39;;;;;;;10.43;3.30;;;15.30;1.00;;;;;;5324837;26;20990;-73
2024/04/18 11:27:08;;;;;;;2.80;2.20;;;14.70;1.00;;;;;;5339855;26;20547;-72
2024/04/18 11:29:40;;;;;;;2.83;1.93;;;14.40;1.00;;;;;;5336010;26;21451;-73
2024/04/18 11:32:11;;;;;;;2.30;1.97;;;13.90;1.00;;;;;;5334412;26;20500;-71
2024/04/18 11:34:42;;;;;;;5.00;2.50;;;13.50;1.00;;;;;;5338137;26;21260;-72
2024/04/18 11:37:10;;;;;;;4.50;2.00;;;13.00;1.00;;;;;;5336287;26;21161;-73
2024/04/18 11:39:41;;;;;;;7.13;2.17;;;12.50;1.00;;;;;;5339081;26;20502;-72
2024/04/18 11:42:10;;;;;;;3.77;2.50;;;12.20;1.00;;;;;;5336247;26;20619;-72
2024/04/18 11:44:41;;;;;;;2.40;2.20;;;12.00;1.00;;;;;;5337126;26;20481;-72
2024/04/18 11:47:09;;;;;;;1.70;1.47;;;11.70;1.00;;;;;;5338039;26;20999;-72
2024/04/18 11:49:38;;;;;;;2.20;1.67;;;11.70;1.00;;;;;;5336629;26;20473;-72
2024/04/18 11:52:07;;;;;;;2.80;1.30;;;12.00;1.00;;;;;;5335642;26;20461;-73
2024/04/18 11:54:37;;;;;;;3.53;2.23;;;12.80;1.00;;;;;;5301815;26;20498;-72
2024/04/18 11:57:05;;;;;;;2.50;1.40;;;15.00;1.00;;;;;;5304198;26;20354;-74
2024/04/18 11:59:37;;;;;;;1.90;1.33;;;18.50;1.00;;;;;;5374453;26;20258;-77
2024/04/18 12:02:09;;;;;;;1.37;1.27;;;21.30;1.00;;;;;;5347867;26;20505;-76
2024/04/18 12:04:38;;;;;;;2.17;2.00;;;23.40;1.00;;;;;;5337458;26;20609;-76
2024/04/18 12:07:07;;;;;;;2.23;1.50;;;24.90;1.00;;;;;;5309197;26;20548;-77
2024/04/18 12:09:37;;;;;;;1.20;1.10;;;25.90;1.00;;;;;;5305302;26;20498;-76
2024/04/18 12:12:10;;;;;;;1.40;0.90;;;26.30;1.00;;;;;;5311427;26;20526;-77
2024/04/18 12:14:40;;;;;;;5.17;2.00;;;26.90;1.00;;;;;;5319097;26;21033;-78
2024/04/18 12:17:11;;;;;;;4.80;3.30;;;27.70;1.00;;;;;;5329649;26;20564;-75
2024/04/18 12:19:40;;;;;;;16.00;12.23;;;27.90;1.00;;;;;;5324437;26;20641;-75
2024/04/18 12:22:10;;;;;;;1.73;1.23;;;28.00;1.00;;;;;;5325889;26;20494;-73
2024/04/18 12:24:39;;;;;;;8.83;2.57;;;28.40;1.00;;;;;;5309374;26;20571;-74
2024/04/18 12:27:08;;;;;;;10.27;5.93;;;27.70;1.00;;;;;;5312564;26;20852;-73
2024/04/18 12:29:36;;;;;;;1.80;1.37;;;28.30;1.00;;;;;;5307654;26;20552;-73
2024/04/18 12:32:06;;;;;;;2.47;1.70;;;28.90;1.00;;;;;;5315200;26;20573;-72
2024/04/18 12:34:50;;;;;;;1.50;1.30;;;29.50;1.00;;;;;;5321096;26;20551;-73
2024/04/18 12:37:18;;;;;;;3.10;1.80;;;28.50;1.00;;;;;;5345143;26;20487;-73
2024/04/18 12:39:48;;;;;;;4.57;1.50;;;27.80;1.00;;;;;;5344001;26;20502;-71
2024/04/18 12:42:18;;;;;;;5.47;1.63;;;28.40;1.00;;;;;;5344166;26;20536;-71
2024/04/18 12:44:46;;;;;;;6.17;3.10;;;26.90;1.00;;;;;;5347362;26;20487;-72
2024/04/18 12:47:15;;;;;;;1.60;1.40;;;24.80;1.00;;;;;;5329581;26;20537;-73
2024/04/18 12:49:46;;;;;;;1.30;1.20;;;23.10;1.00;;;;;;5348816;26;20681;-72
2024/04/18 12:52:15;;;;;;;21.53;3.80;;;22.60;1.00;;;;;;5343551;26;20524;-72
2024/04/18 12:54:45;;;;;;;2.27;1.30;;;21.60;1.00;;;;;;5345729;26;20499;-73
2024/04/18 12:57:14;;;;;;;7.67;1.70;;;20.50;1.00;;;;;;5347128;26;20546;-71
2024/04/18 12:59:42;;;;;;;3.87;2.27;;;19.30;1.00;;;;;;5350838;26;20489;-73
2024/04/18 13:02:09;;;;;;;4.47;1.20;;;18.50;1.00;;;;;;5355621;26;21130;-76
2024/04/18 13:04:38;;;;;;;1.13;1.03;;;17.70;1.00;;;;;;5310667;26;20481;-78
2024/04/18 13:07:09;;;;;;;2.07;1.40;;;17.10;1.00;;;;;;5344148;26;20491;-77
2024/04/18 13:09:39;;;;;;;4.00;1.83;;;16.40;1.00;;;;;;5335087;26;21217;-78
2024/04/18 13:12:08;;;;;;;4.13;1.30;;;16.00;1.00;;;;;;5313104;26;21226;-79